createdAt,value
2024-03-10T00:00:06.403Z,95.67
2024-03-10T00:00:38.422Z,95.00
2024-03-10T00:01:10.471Z,95.00
2024-03-10T00:01:42.569Z,95.00
2024-03-10T00:02:14.721Z,95.00
2024-03-10T00:02:47.081Z,95.00
2024-03-10T00:03:19.438Z,95.67
2024-03-10T00:03:51.686Z,95.67
2024-03-10T00:04:23.828Z,95.33
2024-03-10T00:04:55.886Z,95.00
2024-03-10T00:05:28.024Z,95.00
2024-03-10T00:06:00.064Z,94.67
2024-03-10T00:06:32.148Z,94.00
2024-03-10T00:07:04.564Z,94.33
2024-03-10T00:07:36.689Z,95.00
2024-03-10T00:08:08.794Z,95.33
2024-03-10T00:08:40.903Z,96.33
2024-03-10T00:09:12.915Z,98.00
2024-03-10T00:09:45.215Z,101.67
2024-03-10T00:10:17.293Z,107.00
2024-03-10T00:10:50.766Z,112.67
2024-03-10T00:11:22.904Z,115.00
2024-03-10T00:11:55.152Z,116.00
2024-03-10T00:12:27.193Z,116.00
2024-03-10T00:12:59.318Z,115.00
2024-03-10T00:13:31.365Z,114.33
2024-03-10T00:14:03.478Z,114.00
2024-03-10T00:14:35.590Z,114.00
2024-03-10T00:15:08.813Z,113.00
2024-03-10T00:15:40.834Z,113.00
2024-03-10T00:16:12.868Z,111.67
2024-03-10T00:16:44.938Z,110.33
2024-03-10T00:17:17.067Z,109.33
2024-03-10T00:17:49.322Z,108.33
2024-03-10T00:18:21.589Z,106.67
2024-03-10T00:18:53.663Z,106.00
2024-03-10T00:19:25.719Z,106.33
2024-03-10T00:19:57.961Z,107.33
2024-03-10T00:20:30.105Z,108.00
2024-03-10T00:21:02.408Z,108.00
2024-03-10T00:21:34.642Z,108.00
2024-03-10T00:22:06.655Z,108.00
2024-03-10T00:22:38.694Z,108.00
2024-03-10T00:23:10.708Z,108.00
2024-03-10T00:23:43.112Z,107.67
2024-03-10T00:24:15.152Z,106.67
2024-03-10T00:24:47.601Z,104.67
2024-03-10T00:25:19.969Z,102.00
2024-03-10T00:25:53.377Z,97.67
2024-03-10T00:26:25.467Z,91.67
2024-03-10T00:26:57.566Z,88.67
2024-03-10T00:27:29.599Z,89.00
2024-03-10T00:28:01.649Z,89.00
2024-03-10T00:28:33.888Z,88.00
2024-03-10T00:29:06.764Z,87.33
2024-03-10T00:29:39.387Z,85.67
2024-03-10T00:30:11.668Z,86.00
2024-03-10T00:30:43.760Z,85.33
2024-03-10T00:31:16.125Z,83.67
2024-03-10T00:31:48.630Z,82.33
2024-03-10T00:32:20.706Z,81.33
2024-03-10T00:32:52.902Z,80.00
2024-03-10T00:33:25.057Z,80.33
2024-03-10T00:33:57.170Z,80.33
2024-03-10T00:34:29.625Z,80.67
2024-03-10T00:35:02.011Z,81.33
2024-03-10T00:35:34.399Z,82.33
2024-03-10T00:36:07.096Z,83.00
2024-03-10T00:36:39.136Z,83.67
2024-03-10T00:37:11.338Z,84.00
2024-03-10T00:37:43.385Z,84.67
2024-03-10T00:38:15.545Z,85.00
2024-03-10T00:38:47.758Z,85.00
2024-03-10T00:39:19.759Z,85.00
2024-03-10T00:39:51.982Z,85.00
2024-03-10T00:40:24.049Z,84.00
2024-03-10T00:40:57.513Z,84.00
2024-03-10T00:41:29.595Z,84.00
2024-03-10T00:42:01.631Z,84.00
2024-03-10T00:42:33.746Z,84.00
2024-03-10T00:43:05.766Z,84.00
2024-03-10T00:43:37.776Z,84.00
2024-03-10T00:44:09.868Z,84.33
2024-03-10T00:44:41.863Z,85.00
2024-03-10T00:45:13.913Z,85.00
2024-03-10T00:45:45.900Z,85.00
2024-03-10T00:46:18.030Z,85.00
2024-03-10T00:46:50.125Z,85.00
2024-03-10T00:47:22.369Z,85.00
2024-03-10T00:47:54.664Z,84.33
2024-03-10T00:48:26.778Z,82.67
2024-03-10T00:48:58.800Z,82.00
2024-03-10T00:49:30.824Z,81.00
2024-03-10T00:50:02.962Z,80.00
2024-03-10T00:50:35.356Z,80.00
2024-03-10T00:51:07.459Z,79.67
2024-03-10T00:51:39.547Z,79.33
2024-03-10T00:52:11.686Z,80.00
2024-03-10T00:52:43.693Z,80.00
2024-03-10T00:53:15.845Z,80.00
2024-03-10T00:53:47.958Z,80.00
2024-03-10T00:54:20.051Z,80.67
2024-03-10T00:54:52.109Z,81.33
2024-03-10T00:55:24.160Z,82.00
2024-03-10T00:55:57.663Z,82.67
2024-03-10T00:56:29.943Z,85.00
2024-03-10T00:57:02.043Z,86.67
2024-03-10T00:57:34.191Z,88.33
2024-03-10T00:58:06.710Z,90.33
2024-03-10T00:58:38.777Z,92.00
2024-03-10T00:59:11.034Z,96.00
2024-03-10T00:59:43.183Z,97.67
2024-03-10T01:00:16.052Z,96.67
2024-03-10T01:00:48.092Z,95.67
2024-03-10T01:01:20.314Z,94.33
2024-03-10T01:01:52.431Z,93.00
2024-03-10T01:02:25.273Z,93.00
2024-03-10T01:02:57.325Z,95.00
2024-03-10T01:03:29.476Z,111.33
2024-03-10T01:04:01.627Z,159.67
2024-03-10T01:04:33.663Z,232.67
2024-03-10T01:05:07.013Z,284.67
2024-03-10T01:05:39.073Z,292.00
2024-03-10T01:06:11.189Z,283.33
2024-03-10T01:06:45.556Z,271.00
2024-03-10T01:07:20.543Z,262.33
2024-03-10T01:07:52.731Z,259.33
2024-03-10T01:08:24.846Z,264.33
2024-03-10T01:08:58.281Z,265.67
2024-03-10T01:09:30.489Z,260.67
2024-03-10T01:10:02.798Z,259.00
2024-03-10T01:10:34.829Z,253.00
2024-03-10T01:11:08.482Z,242.67
2024-03-10T01:11:41.308Z,239.67
2024-03-10T01:12:13.795Z,232.67
2024-03-10T01:12:45.824Z,219.33
2024-03-10T01:13:17.829Z,213.00
2024-03-10T01:13:50.000Z,210.67
2024-03-10T01:14:22.393Z,208.67
2024-03-10T01:14:54.732Z,201.67
2024-03-10T01:15:26.854Z,183.33
2024-03-10T01:15:58.965Z,165.33
2024-03-10T01:16:31.059Z,154.33
2024-03-10T01:17:03.383Z,149.00
2024-03-10T01:17:36.050Z,145.00
2024-03-10T01:18:08.320Z,139.67
2024-03-10T01:18:40.366Z,135.67
2024-03-10T01:19:12.425Z,131.00
2024-03-10T01:19:44.557Z,126.67
2024-03-10T01:20:16.872Z,122.00
2024-03-10T01:20:49.336Z,117.33
2024-03-10T01:21:21.399Z,112.33
2024-03-10T01:21:53.450Z,110.00
2024-03-10T01:22:25.695Z,109.00
2024-03-10T01:22:58.000Z,107.00
2024-03-10T01:23:30.039Z,104.00
2024-03-10T01:24:03.823Z,101.33
2024-03-10T01:24:37.817Z,99.00
2024-03-10T01:25:10.326Z,99.33
2024-03-10T01:25:42.574Z,100.00
2024-03-10T01:26:16.371Z,102.67
2024-03-10T01:26:48.476Z,102.33
2024-03-10T01:27:20.520Z,99.00
2024-03-10T01:27:52.532Z,96.67
2024-03-10T01:28:24.691Z,98.00
2024-03-10T01:28:56.794Z,98.33
2024-03-10T01:29:29.204Z,98.33
2024-03-10T01:30:01.312Z,99.33
2024-03-10T01:30:33.320Z,101.00
2024-03-10T01:31:05.417Z,98.67
2024-03-10T01:31:37.495Z,95.33
2024-03-10T01:32:09.573Z,95.33
2024-03-10T01:32:42.030Z,96.67
2024-03-10T01:33:14.099Z,96.33
2024-03-10T01:33:46.337Z,95.33
2024-03-10T01:34:18.751Z,94.33
2024-03-10T01:34:50.789Z,94.00
2024-03-10T01:35:22.931Z,94.67
2024-03-10T01:35:54.997Z,95.00
2024-03-10T01:36:27.050Z,95.00
2024-03-10T01:36:59.111Z,94.00
2024-03-10T01:37:31.302Z,94.00
2024-03-10T01:38:03.641Z,93.33
2024-03-10T01:38:35.767Z,92.33
2024-03-10T01:39:08.194Z,90.00
2024-03-10T01:39:40.276Z,87.33
2024-03-10T01:40:12.521Z,87.00
2024-03-10T01:40:44.724Z,87.00
2024-03-10T01:41:18.135Z,87.33
2024-03-10T01:41:50.192Z,88.67
2024-03-10T01:42:22.216Z,89.33
2024-03-10T01:42:55.393Z,90.33
2024-03-10T01:43:27.388Z,91.00
2024-03-10T01:43:59.426Z,91.67
2024-03-10T01:44:31.496Z,92.00
2024-03-10T01:45:03.812Z,92.33
2024-03-10T01:45:35.769Z,93.00
2024-03-10T01:46:09.586Z,93.00
2024-03-10T01:46:41.958Z,93.00
2024-03-10T01:47:14.202Z,93.00
2024-03-10T01:47:46.598Z,93.00
2024-03-10T01:48:18.826Z,93.00
2024-03-10T01:48:52.630Z,93.00
2024-03-10T01:49:24.815Z,93.00
2024-03-10T01:49:57.000Z,93.00
2024-03-10T01:50:29.454Z,93.00
2024-03-10T01:51:02.270Z,93.00
2024-03-10T01:51:36.462Z,93.00
2024-03-10T01:52:10.049Z,93.00
2024-03-10T01:52:42.428Z,93.00
2024-03-10T01:53:14.713Z,93.00
2024-03-10T01:53:48.164Z,93.00
2024-03-10T01:54:24.964Z,94.00
2024-03-10T01:54:59.112Z,94.00
2024-03-10T01:55:31.403Z,94.00
2024-03-10T01:56:04.754Z,94.00
2024-03-10T01:56:39.827Z,94.00
2024-03-10T01:57:12.397Z,94.00
2024-03-10T01:57:47.556Z,93.67
2024-03-10T01:58:19.914Z,94.00
2024-03-10T01:58:53.848Z,94.00
2024-03-10T01:59:26.738Z,94.67
2024-03-10T01:59:59.130Z,96.00
2024-03-10T02:00:31.545Z,98.00
2024-03-10T02:01:04.521Z,99.00
2024-03-10T02:01:36.722Z,100.00
2024-03-10T02:02:08.961Z,100.67
2024-03-10T02:02:42.299Z,100.67
2024-03-10T02:03:15.148Z,101.00
2024-03-10T02:03:49.226Z,102.00
2024-03-10T02:04:21.827Z,102.33
2024-03-10T02:04:54.312Z,103.33
2024-03-10T02:05:26.590Z,104.67
2024-03-10T02:05:59.237Z,105.67
2024-03-10T02:06:31.540Z,107.67
2024-03-10T02:07:04.101Z,108.00
2024-03-10T02:07:36.278Z,109.33
2024-03-10T02:08:08.319Z,112.00
2024-03-10T02:08:41.582Z,114.67
2024-03-10T02:09:13.888Z,115.33
2024-03-10T02:09:46.329Z,115.67
2024-03-10T02:10:19.086Z,115.00
2024-03-10T02:10:51.776Z,114.00
2024-03-10T02:11:24.087Z,113.33
2024-03-10T02:11:57.924Z,113.00
2024-03-10T02:12:30.171Z,112.67
2024-03-10T02:13:02.181Z,112.00
2024-03-10T02:13:34.581Z,112.00
2024-03-10T02:14:06.642Z,112.00
2024-03-10T02:14:38.704Z,112.00
2024-03-10T02:15:10.821Z,112.00
2024-03-10T02:15:43.163Z,113.00
2024-03-10T02:16:15.406Z,113.00
2024-03-10T02:16:47.486Z,113.33
2024-03-10T02:17:19.555Z,114.00
2024-03-10T02:17:51.793Z,115.00
2024-03-10T02:18:23.857Z,115.67
2024-03-10T02:18:55.966Z,116.67
2024-03-10T02:19:28.337Z,117.00
2024-03-10T02:20:00.439Z,117.33
2024-03-10T02:20:32.509Z,119.33
2024-03-10T02:21:05.661Z,123.00
2024-03-10T02:21:38.225Z,127.00
2024-03-10T02:22:10.276Z,131.00
2024-03-10T02:22:43.636Z,135.00
2024-03-10T02:23:16.408Z,138.33
2024-03-10T02:23:57.286Z,140.67
2024-03-10T02:24:33.897Z,144.67
2024-03-10T02:25:07.016Z,146.67
2024-03-10T02:25:43.431Z,146.00
2024-03-10T02:26:15.784Z,144.00
2024-03-10T02:26:48.280Z,142.00
2024-03-10T02:27:21.813Z,140.00
2024-03-10T02:27:54.602Z,138.67
2024-03-10T02:28:27.713Z,138.00
2024-03-10T02:29:01.438Z,137.00
2024-03-10T02:29:33.685Z,136.00
2024-03-10T02:30:06.924Z,134.67
2024-03-10T02:30:49.113Z,134.00
2024-03-10T02:31:21.141Z,133.67
2024-03-10T02:31:53.907Z,132.67
2024-03-10T02:32:27.090Z,131.33
2024-03-10T02:32:59.843Z,130.00
2024-03-10T02:33:31.874Z,129.00
2024-03-10T02:34:04.522Z,129.00
2024-03-10T02:34:37.917Z,129.00
2024-03-10T02:35:10.026Z,129.00
2024-03-10T02:35:42.045Z,129.00
2024-03-10T02:36:14.128Z,129.00
2024-03-10T02:36:46.178Z,129.00
2024-03-10T02:37:18.648Z,129.00
2024-03-10T02:37:50.754Z,129.00
2024-03-10T02:38:22.927Z,129.00
2024-03-10T02:38:55.116Z,129.00
2024-03-10T02:39:27.220Z,128.67
2024-03-10T02:39:59.319Z,128.00
2024-03-10T02:40:31.472Z,127.00
2024-03-10T02:41:05.157Z,126.00
2024-03-10T02:41:37.254Z,126.00
2024-03-10T02:42:09.332Z,127.00
2024-03-10T02:42:41.411Z,130.00
2024-03-10T02:43:13.486Z,135.00
2024-03-10T02:43:46.281Z,139.67
2024-03-10T02:44:18.447Z,139.67
2024-03-10T02:44:50.623Z,139.00
2024-03-10T02:45:22.641Z,138.00
2024-03-10T02:45:55.134Z,138.00
2024-03-10T02:46:27.180Z,137.67
2024-03-10T02:46:59.220Z,137.00
2024-03-10T02:47:31.407Z,136.33
2024-03-10T02:48:04.006Z,136.00
2024-03-10T02:48:36.046Z,134.67
2024-03-10T02:49:08.081Z,133.67
2024-03-10T02:49:40.661Z,133.00
2024-03-10T02:50:12.750Z,133.00
2024-03-10T02:50:45.366Z,133.00
2024-03-10T02:51:17.470Z,133.00
2024-03-10T02:51:49.497Z,132.67
2024-03-10T02:52:21.694Z,133.00
2024-03-10T02:52:53.751Z,134.33
2024-03-10T02:53:26.166Z,135.33
2024-03-10T02:53:58.459Z,139.00
2024-03-10T02:54:30.528Z,145.00
2024-03-10T02:55:02.887Z,149.67
2024-03-10T02:55:34.942Z,154.00
2024-03-10T02:56:08.866Z,159.00
2024-03-10T02:56:40.880Z,160.33
2024-03-10T02:57:12.975Z,160.33
2024-03-10T02:57:44.991Z,159.00
2024-03-10T02:58:17.005Z,161.00
2024-03-10T02:58:49.142Z,167.33
2024-03-10T02:59:21.251Z,174.33
2024-03-10T02:59:53.228Z,183.67
2024-03-10T03:00:25.258Z,190.67
2024-03-10T03:00:57.262Z,191.67
2024-03-10T03:01:29.361Z,189.67
2024-03-10T03:02:01.549Z,182.00
2024-03-10T03:02:34.672Z,178.00
2024-03-10T03:03:06.744Z,178.67
2024-03-10T03:03:38.825Z,176.00
2024-03-10T03:04:10.850Z,174.67
2024-03-10T03:04:42.877Z,172.67
2024-03-10T03:05:16.334Z,172.00
2024-03-10T03:05:49.303Z,171.00
2024-03-10T03:06:21.431Z,170.33
2024-03-10T03:06:53.772Z,170.00
2024-03-10T03:07:25.742Z,168.67
2024-03-10T03:07:58.805Z,167.00
2024-03-10T03:08:30.930Z,163.33
2024-03-10T03:09:03.027Z,159.00
2024-03-10T03:09:35.029Z,156.33
2024-03-10T03:10:07.676Z,152.67
2024-03-10T03:10:39.877Z,150.00
2024-03-10T03:11:13.273Z,149.67
2024-03-10T03:11:45.350Z,149.67
2024-03-10T03:12:17.657Z,150.00
2024-03-10T03:12:50.028Z,150.67
2024-03-10T03:13:22.084Z,151.00
2024-03-10T03:13:54.231Z,151.67
2024-03-10T03:14:26.389Z,152.33
2024-03-10T03:14:58.498Z,154.00
2024-03-10T03:15:30.856Z,154.67
2024-03-10T03:16:03.206Z,155.67
2024-03-10T03:16:35.284Z,156.67
2024-03-10T03:17:07.912Z,159.00
2024-03-10T03:17:40.073Z,162.00
2024-03-10T03:18:12.192Z,165.67
2024-03-10T03:18:44.372Z,166.67
2024-03-10T03:19:16.466Z,168.00
2024-03-10T03:19:48.510Z,168.00
2024-03-10T03:20:20.873Z,167.33
2024-03-10T03:20:53.002Z,167.67
2024-03-10T03:21:24.998Z,167.00
2024-03-10T03:21:57.063Z,167.00
2024-03-10T03:22:29.087Z,167.33
2024-03-10T03:23:01.123Z,168.00
2024-03-10T03:23:33.204Z,168.00
2024-03-10T03:24:05.700Z,168.00
2024-03-10T03:24:38.833Z,168.00
2024-03-10T03:25:11.181Z,168.00
2024-03-10T03:25:43.222Z,168.00
2024-03-10T03:26:17.218Z,168.67
2024-03-10T03:26:49.239Z,170.33
2024-03-10T03:27:21.327Z,171.33
2024-03-10T03:27:53.450Z,173.00
2024-03-10T03:28:25.475Z,175.00
2024-03-10T03:28:57.499Z,178.00
2024-03-10T03:29:29.592Z,179.00
2024-03-10T03:30:01.570Z,180.33
2024-03-10T03:30:33.596Z,182.00
2024-03-10T03:31:05.733Z,184.00
2024-03-10T03:31:37.780Z,185.67
2024-03-10T03:32:09.781Z,185.00
2024-03-10T03:32:41.857Z,184.67
2024-03-10T03:33:14.013Z,183.67
2024-03-10T03:33:46.084Z,183.00
2024-03-10T03:34:18.655Z,182.33
2024-03-10T03:34:50.681Z,182.00
2024-03-10T03:35:22.925Z,181.33
2024-03-10T03:35:55.013Z,181.00
2024-03-10T03:36:27.273Z,181.00
2024-03-10T03:36:59.337Z,180.00
2024-03-10T03:37:31.447Z,179.67
2024-03-10T03:38:03.814Z,179.00
2024-03-10T03:38:36.555Z,178.33
2024-03-10T03:39:08.758Z,178.00
2024-03-10T03:39:40.846Z,177.33
2024-03-10T03:40:13.480Z,177.00
2024-03-10T03:40:45.554Z,176.33
2024-03-10T03:41:19.226Z,176.00
2024-03-10T03:41:51.342Z,175.00
2024-03-10T03:42:24.293Z,175.00
2024-03-10T03:42:56.365Z,175.00
2024-03-10T03:43:28.422Z,175.33
2024-03-10T03:44:00.520Z,178.00
2024-03-10T03:44:32.596Z,185.00
2024-03-10T03:45:05.116Z,191.00
2024-03-10T03:45:37.385Z,193.00
2024-03-10T03:46:09.450Z,194.67
2024-03-10T03:46:41.531Z,194.33
2024-03-10T03:47:13.557Z,193.00
2024-03-10T03:47:45.700Z,193.33
2024-03-10T03:48:19.788Z,193.00
2024-03-10T03:48:52.155Z,192.00
2024-03-10T03:49:24.157Z,191.00
2024-03-10T03:49:56.145Z,190.00
2024-03-10T03:50:28.212Z,188.33
2024-03-10T03:51:00.340Z,186.33
2024-03-10T03:51:32.401Z,184.00
2024-03-10T03:52:05.732Z,182.33
2024-03-10T03:52:37.764Z,179.67
2024-03-10T03:53:09.775Z,176.33
2024-03-10T03:53:41.822Z,176.00
2024-03-10T03:54:14.680Z,176.00
2024-03-10T03:54:46.746Z,176.00
2024-03-10T03:55:19.183Z,176.00
2024-03-10T03:55:51.269Z,175.33
2024-03-10T03:56:24.854Z,174.33
2024-03-10T03:56:56.976Z,172.67
2024-03-10T03:57:29.009Z,170.33
2024-03-10T03:58:01.052Z,169.33
2024-03-10T03:58:33.196Z,169.00
2024-03-10T03:59:05.472Z,170.00
2024-03-10T03:59:39.377Z,170.33
2024-03-10T04:00:12.470Z,171.33
2024-03-10T04:00:44.617Z,172.00
2024-03-10T04:01:16.746Z,171.67
2024-03-10T04:01:48.904Z,170.33
2024-03-10T04:02:20.925Z,168.00
2024-03-10T04:02:52.974Z,164.67
2024-03-10T04:03:24.992Z,160.67
2024-03-10T04:03:57.018Z,158.00
2024-03-10T04:04:29.005Z,156.00
2024-03-10T04:05:01.067Z,157.00
2024-03-10T04:05:33.216Z,156.33
2024-03-10T04:06:05.606Z,157.00
2024-03-10T04:06:37.611Z,155.67
2024-03-10T04:07:09.688Z,153.33
2024-03-10T04:07:45.227Z,153.00
2024-03-10T04:08:17.259Z,153.67
2024-03-10T04:08:50.046Z,154.67
2024-03-10T04:09:22.106Z,155.00
2024-03-10T04:09:54.081Z,155.00
2024-03-10T04:10:26.096Z,155.67
2024-03-10T04:10:58.221Z,155.00
2024-03-10T04:11:31.870Z,153.67
2024-03-10T04:12:04.668Z,153.67
2024-03-10T04:12:37.060Z,154.67
2024-03-10T04:13:09.425Z,155.00
2024-03-10T04:13:41.434Z,155.00
2024-03-10T04:14:13.542Z,155.00
2024-03-10T04:14:45.597Z,155.00
2024-03-10T04:15:17.683Z,154.67
2024-03-10T04:15:49.860Z,154.00
2024-03-10T04:16:22.002Z,155.00
2024-03-10T04:16:54.101Z,155.00
2024-03-10T04:17:26.199Z,155.00
2024-03-10T04:17:58.418Z,155.67
2024-03-10T04:18:30.603Z,156.00
2024-03-10T04:19:02.694Z,157.00
2024-03-10T04:19:34.780Z,158.00
2024-03-10T04:20:07.688Z,158.00
2024-03-10T04:20:39.715Z,159.00
2024-03-10T04:21:11.794Z,159.00
2024-03-10T04:21:43.965Z,159.00
2024-03-10T04:22:16.011Z,159.00
2024-03-10T04:22:48.037Z,159.00
2024-03-10T04:23:23.976Z,158.67
2024-03-10T04:23:56.884Z,158.33
2024-03-10T04:24:28.942Z,159.00
2024-03-10T04:25:01.076Z,159.00
2024-03-10T04:25:33.334Z,159.00
2024-03-10T04:26:05.454Z,159.00
2024-03-10T04:26:41.602Z,158.33
2024-03-10T04:27:15.032Z,157.33
2024-03-10T04:27:47.028Z,155.67
2024-03-10T04:28:19.123Z,155.00
2024-03-10T04:28:51.213Z,154.00
2024-03-10T04:29:23.296Z,154.67
2024-03-10T04:29:55.285Z,155.00
2024-03-10T04:30:27.263Z,155.00
2024-03-10T04:30:59.491Z,155.00
2024-03-10T04:31:31.556Z,154.00
2024-03-10T04:32:03.994Z,153.67
2024-03-10T04:32:36.072Z,152.67
2024-03-10T04:33:08.145Z,152.33
2024-03-10T04:33:40.216Z,153.00
2024-03-10T04:34:12.570Z,153.00
2024-03-10T04:34:44.690Z,153.00
2024-03-10T04:35:17.091Z,153.67
2024-03-10T04:35:49.154Z,153.00
2024-03-10T04:36:21.229Z,153.67
2024-03-10T04:36:53.356Z,153.67
2024-03-10T04:37:25.415Z,153.00
2024-03-10T04:37:57.554Z,153.33
2024-03-10T04:38:29.778Z,153.00
2024-03-10T04:39:01.927Z,152.67
2024-03-10T04:39:33.990Z,150.67
2024-03-10T04:40:07.176Z,149.00
2024-03-10T04:40:39.220Z,148.00
2024-03-10T04:41:11.404Z,148.00
2024-03-10T04:41:44.824Z,148.00
2024-03-10T04:42:16.914Z,148.00
2024-03-10T04:42:48.975Z,147.33
2024-03-10T04:43:23.644Z,146.00
2024-03-10T04:43:56.104Z,143.00
2024-03-10T04:44:28.196Z,140.33
2024-03-10T04:45:00.295Z,139.00
2024-03-10T04:45:32.394Z,138.00
2024-03-10T04:46:04.686Z,137.00
2024-03-10T04:46:37.547Z,137.33
2024-03-10T04:47:09.666Z,138.00
2024-03-10T04:47:41.892Z,138.00
2024-03-10T04:48:14.065Z,138.33
2024-03-10T04:48:46.282Z,139.00
2024-03-10T04:49:18.326Z,139.00
2024-03-10T04:49:50.411Z,139.00
2024-03-10T04:50:22.576Z,138.33
2024-03-10T04:50:54.821Z,137.33
2024-03-10T04:51:26.961Z,137.00
2024-03-10T04:51:59.146Z,136.00
2024-03-10T04:52:31.306Z,135.00
2024-03-10T04:53:03.556Z,135.00
2024-03-10T04:53:35.660Z,136.00
2024-03-10T04:54:07.679Z,137.00
2024-03-10T04:54:39.709Z,137.33
2024-03-10T04:55:11.731Z,138.00
2024-03-10T04:55:43.712Z,138.00
2024-03-10T04:56:15.759Z,138.00
2024-03-10T04:56:49.304Z,138.67
2024-03-10T04:57:22.935Z,139.00
2024-03-10T04:57:57.049Z,139.00
2024-03-10T04:58:30.065Z,139.67
2024-03-10T04:59:02.300Z,140.67
2024-03-10T04:59:36.191Z,141.33
2024-03-10T05:00:10.271Z,142.33
2024-03-10T05:00:42.518Z,143.00
2024-03-10T05:01:18.068Z,144.00
2024-03-10T05:01:53.034Z,144.00
2024-03-10T05:02:26.774Z,145.00
2024-03-10T05:02:58.918Z,146.33
2024-03-10T05:03:31.033Z,147.00
2024-03-10T05:04:03.122Z,147.33
2024-03-10T05:04:35.734Z,148.33
2024-03-10T05:05:09.190Z,150.00
2024-03-10T05:05:41.812Z,150.67
2024-03-10T05:06:14.814Z,152.67
2024-03-10T05:06:46.891Z,153.33
2024-03-10T05:07:18.942Z,155.00
2024-03-10T05:07:51.026Z,156.33
2024-03-10T05:08:23.114Z,158.33
2024-03-10T05:08:55.497Z,161.00
2024-03-10T05:09:27.513Z,163.00
2024-03-10T05:10:00.270Z,164.33
2024-03-10T05:10:32.489Z,166.00
2024-03-10T05:11:04.801Z,167.67
2024-03-10T05:11:37.335Z,168.67
2024-03-10T05:12:11.281Z,171.00
2024-03-10T05:12:43.377Z,170.00
2024-03-10T05:13:15.409Z,168.67
2024-03-10T05:13:47.690Z,167.67
2024-03-10T05:14:19.778Z,167.00
2024-03-10T05:14:51.838Z,166.00
2024-03-10T05:15:24.656Z,166.00
2024-03-10T05:15:56.666Z,165.00
2024-03-10T05:16:28.718Z,164.00
2024-03-10T05:17:01.072Z,163.00
2024-03-10T05:17:33.347Z,161.67
2024-03-10T05:18:05.910Z,160.67
2024-03-10T05:18:38.082Z,159.67
2024-03-10T05:19:10.977Z,158.33
2024-03-10T05:19:43.163Z,157.33
2024-03-10T05:20:16.659Z,156.33
2024-03-10T05:20:48.840Z,155.33
2024-03-10T05:21:20.976Z,155.00
2024-03-10T05:21:53.040Z,154.00
2024-03-10T05:22:25.088Z,153.00
2024-03-10T05:22:57.147Z,151.33
2024-03-10T05:23:29.334Z,149.00
2024-03-10T05:24:01.711Z,148.00
2024-03-10T05:24:33.692Z,147.67
2024-03-10T05:25:06.591Z,147.00
2024-03-10T05:25:38.636Z,146.67
2024-03-10T05:26:10.655Z,146.00
2024-03-10T05:26:42.644Z,145.00
2024-03-10T05:27:16.028Z,143.67
2024-03-10T05:27:48.047Z,143.00
2024-03-10T05:28:20.065Z,143.00
2024-03-10T05:28:52.239Z,143.00
2024-03-10T05:29:24.304Z,143.67
2024-03-10T05:29:56.434Z,143.00
2024-03-10T05:30:28.428Z,142.33
2024-03-10T05:31:00.457Z,142.00
2024-03-10T05:31:33.899Z,141.00
2024-03-10T05:32:06.247Z,141.00
2024-03-10T05:32:38.457Z,142.00
2024-03-10T05:33:10.576Z,142.00
2024-03-10T05:33:42.572Z,143.00
2024-03-10T05:34:14.572Z,142.67
2024-03-10T05:34:46.703Z,142.00
2024-03-10T05:35:18.971Z,141.67
2024-03-10T05:35:51.068Z,142.00
2024-03-10T05:36:23.089Z,142.00
2024-03-10T05:36:55.118Z,142.00
2024-03-10T05:37:27.138Z,141.67
2024-03-10T05:37:59.162Z,139.67
2024-03-10T05:38:31.305Z,139.00
2024-03-10T05:39:04.102Z,139.00
2024-03-10T05:39:36.166Z,139.00
2024-03-10T05:40:09.248Z,139.00
2024-03-10T05:40:41.283Z,139.00
2024-03-10T05:41:13.348Z,139.00
2024-03-10T05:41:45.430Z,139.00
2024-03-10T05:42:18.786Z,139.00
2024-03-10T05:42:50.787Z,139.00
2024-03-10T05:43:22.767Z,139.00
2024-03-10T05:43:54.844Z,139.00
2024-03-10T05:44:26.954Z,139.00
2024-03-10T05:44:59.048Z,138.67
2024-03-10T05:45:31.030Z,138.00
2024-03-10T05:46:03.109Z,138.00
2024-03-10T05:46:35.091Z,138.00
2024-03-10T05:47:07.382Z,138.00
2024-03-10T05:47:39.477Z,138.00
2024-03-10T05:48:11.540Z,139.00
2024-03-10T05:48:43.977Z,139.00
2024-03-10T05:49:16.052Z,139.33
2024-03-10T05:49:48.101Z,140.00
2024-03-10T05:50:20.238Z,140.00
2024-03-10T05:50:52.264Z,140.00
2024-03-10T05:51:24.295Z,140.00
2024-03-10T05:51:56.380Z,140.00
2024-03-10T05:52:28.476Z,140.00
2024-03-10T05:53:00.636Z,140.00
2024-03-10T05:53:32.707Z,140.00
2024-03-10T05:54:04.952Z,140.00
2024-03-10T05:54:36.977Z,140.00
2024-03-10T05:55:09.432Z,140.00
2024-03-10T05:55:41.473Z,139.33
2024-03-10T05:56:13.941Z,138.67
2024-03-10T05:56:46.044Z,138.00
2024-03-10T05:57:19.441Z,138.00
2024-03-10T05:57:51.462Z,138.00
2024-03-10T05:58:23.528Z,138.00
2024-03-10T05:58:55.595Z,138.33
2024-03-10T05:59:27.694Z,139.00
2024-03-10T06:00:00.516Z,140.00
2024-03-10T06:00:32.722Z,142.33
2024-03-10T06:01:05.072Z,143.67
2024-03-10T06:01:37.121Z,144.33
2024-03-10T06:02:09.293Z,145.33
2024-03-10T06:02:41.424Z,146.00
2024-03-10T06:03:13.455Z,146.33
2024-03-10T06:03:45.454Z,147.00
2024-03-10T06:04:17.484Z,147.00
2024-03-10T06:04:49.531Z,147.00
2024-03-10T06:05:21.608Z,148.00
2024-03-10T06:05:54.361Z,147.33
2024-03-10T06:06:26.909Z,147.00
2024-03-10T06:06:58.912Z,147.00
2024-03-10T06:07:31.007Z,147.00
2024-03-10T06:08:03.220Z,147.00
2024-03-10T06:08:35.291Z,147.00
2024-03-10T06:09:07.393Z,147.00
2024-03-10T06:09:39.433Z,147.00
2024-03-10T06:10:11.943Z,148.00
2024-03-10T06:10:44.043Z,148.67
2024-03-10T06:11:16.272Z,150.33
2024-03-10T06:11:48.561Z,152.00
2024-03-10T06:12:22.035Z,153.00
2024-03-10T06:12:54.113Z,154.00
2024-03-10T06:13:26.128Z,156.33
2024-03-10T06:13:58.136Z,158.00
2024-03-10T06:14:30.323Z,158.33
2024-03-10T06:15:05.681Z,158.00
2024-03-10T06:15:37.693Z,158.67
2024-03-10T06:16:09.735Z,159.33
2024-03-10T06:16:41.943Z,160.00
2024-03-10T06:17:13.978Z,160.33
2024-03-10T06:17:46.064Z,160.00
2024-03-10T06:18:18.114Z,160.33
2024-03-10T06:18:50.170Z,160.67
2024-03-10T06:19:22.229Z,160.00
2024-03-10T06:19:54.290Z,160.00
2024-03-10T06:20:26.475Z,160.00
2024-03-10T06:20:58.737Z,160.00
2024-03-10T06:21:30.743Z,160.00
2024-03-10T06:22:02.799Z,160.00
2024-03-10T06:22:34.835Z,160.00
2024-03-10T06:23:06.903Z,160.00
2024-03-10T06:23:39.016Z,160.00
2024-03-10T06:24:11.653Z,160.00
2024-03-10T06:24:43.684Z,160.00
2024-03-10T06:25:15.726Z,161.00
2024-03-10T06:25:47.775Z,161.00
2024-03-10T06:26:21.166Z,161.00
2024-03-10T06:26:53.305Z,162.00
2024-03-10T06:27:26.662Z,163.00
2024-03-10T06:27:58.735Z,163.00
2024-03-10T06:28:30.733Z,163.00
2024-03-10T06:29:02.814Z,163.33
2024-03-10T06:29:34.906Z,164.00
2024-03-10T06:30:07.977Z,164.00
2024-03-10T06:30:40.068Z,164.00
2024-03-10T06:31:12.055Z,164.00
2024-03-10T06:31:44.020Z,163.67
2024-03-10T06:32:16.217Z,163.00
2024-03-10T06:32:48.567Z,163.00
2024-03-10T06:33:20.681Z,163.33
2024-03-10T06:33:52.765Z,164.00
2024-03-10T06:34:24.900Z,164.00
2024-03-10T06:34:57.026Z,163.67
2024-03-10T06:35:29.363Z,163.00
2024-03-10T06:36:01.441Z,163.00
2024-03-10T06:36:33.458Z,163.00
2024-03-10T06:37:05.666Z,163.00
2024-03-10T06:37:37.753Z,163.00
2024-03-10T06:38:09.789Z,163.00
2024-03-10T06:38:43.716Z,163.33
2024-03-10T06:39:15.768Z,164.00
2024-03-10T06:39:47.841Z,164.67
2024-03-10T06:40:19.995Z,165.00
2024-03-10T06:40:52.000Z,165.67
2024-03-10T06:41:24.129Z,166.00
2024-03-10T06:41:56.143Z,166.00
2024-03-10T06:42:29.501Z,165.67
2024-03-10T06:43:01.593Z,165.00
2024-03-10T06:43:33.649Z,164.33
2024-03-10T06:44:05.722Z,164.00
2024-03-10T06:44:37.774Z,164.00
2024-03-10T06:45:10.151Z,164.00
2024-03-10T06:45:42.140Z,163.33
2024-03-10T06:46:14.149Z,162.67
2024-03-10T06:46:46.322Z,162.00